createdAt,value
2019-01-08T00:00:59.953Z,9.23
2019-01-08T00:03:29.740Z,8.95
2019-01-08T00:05:59.190Z,9.63
2019-01-08T00:08:28.698Z,8.43
2019-01-08T00:10:58.182Z,8.10
2019-01-08T00:13:27.692Z,8.83
2019-01-08T00:15:57.199Z,7.50
2019-01-08T00:18:26.685Z,7.53
2019-01-08T00:20:56.257Z,6.65
2019-01-08T00:23:25.809Z,6.70
2019-01-08T00:25:55.259Z,6.58
2019-01-08T00:28:25.101Z,6.90
2019-01-08T00:30:54.505Z,5.60
2019-01-08T00:33:24.046Z,6.83
2019-01-08T00:35:53.758Z,5.80
2019-01-08T00:38:25.144Z,5.53
2019-01-08T00:40:55.765Z,5.70
2019-01-08T00:43:26.587Z,5.95
2019-01-08T00:45:56.177Z,5.90
2019-01-08T00:48:25.760Z,6.25
2019-01-08T00:50:55.221Z,5.30
2019-01-08T00:53:25.035Z,5.37
2019-01-08T00:55:54.515Z,5.70
2019-01-08T00:58:24.279Z,5.90
2019-01-08T01:00:53.754Z,6.00
2019-01-08T01:03:25.286Z,6.22
2019-01-08T01:05:54.910Z,6.17
2019-01-08T01:08:24.515Z,5.60
2019-01-08T01:10:54.049Z,5.37
2019-01-08T01:13:23.705Z,5.40
2019-01-08T01:15:53.217Z,6.10
2019-01-08T01:18:23.189Z,5.15
2019-01-08T01:20:53.718Z,4.92
2019-01-08T01:23:23.451Z,4.95
2019-01-08T01:25:52.928Z,5.45
2019-01-08T01:28:22.466Z,4.97
2019-01-08T01:30:52.098Z,4.90
2019-01-08T01:33:21.575Z,5.10
2019-01-08T01:35:51.574Z,4.58
2019-01-08T01:38:21.135Z,4.95
2019-01-08T01:40:50.838Z,5.40
2019-01-08T01:43:20.299Z,5.30
2019-01-08T01:45:49.757Z,5.20
2019-01-08T01:48:19.601Z,4.80
2019-01-08T01:50:49.034Z,5.15
2019-01-08T01:53:18.482Z,5.00
2019-01-08T01:55:48.005Z,5.40
2019-01-08T01:58:17.535Z,4.70
2019-01-08T02:00:47.071Z,5.35
2019-01-08T02:03:16.946Z,5.78
2019-01-08T02:05:46.526Z,6.15
2019-01-08T02:08:16.467Z,5.60
2019-01-08T02:10:45.989Z,5.65
2019-01-08T02:13:15.640Z,6.12
2019-01-08T02:15:45.169Z,5.55
2019-01-08T02:18:14.600Z,6.58
2019-01-08T02:20:44.282Z,6.60
2019-01-08T02:23:13.807Z,6.70
2019-01-08T02:25:43.595Z,6.25
2019-01-08T02:28:13.089Z,6.30
2019-01-08T02:30:42.597Z,6.40
2019-01-08T02:33:12.399Z,5.92
2019-01-08T02:35:41.903Z,6.10
2019-01-08T02:38:11.447Z,6.08
2019-01-08T02:40:40.962Z,6.10
2019-01-08T02:43:10.534Z,5.80
2019-01-08T02:45:39.997Z,5.40
2019-01-08T02:48:09.583Z,5.35
2019-01-08T02:50:39.007Z,5.55
2019-01-08T02:53:08.471Z,5.05
2019-01-08T02:55:37.924Z,5.00
2019-01-08T02:58:07.470Z,4.50
2019-01-08T03:00:37.042Z,4.55
2019-01-08T03:03:06.560Z,4.22
2019-01-08T03:05:36.071Z,4.50
2019-01-08T03:08:05.598Z,4.62
2019-01-08T03:10:35.192Z,4.35
2019-01-08T03:13:04.786Z,4.70
2019-01-08T03:15:34.415Z,5.00
2019-01-08T03:18:04.322Z,5.15
2019-01-08T03:20:33.869Z,5.75
2019-01-08T03:23:03.588Z,5.60
2019-01-08T03:25:33.127Z,5.10
2019-01-08T03:28:02.592Z,5.58
2019-01-08T03:30:51.232Z,5.30
2019-01-08T03:33:20.981Z,5.10
2019-01-08T03:35:50.469Z,5.12
2019-01-08T03:38:19.932Z,4.62
2019-01-08T03:40:49.603Z,4.90
2019-01-08T03:43:19.076Z,5.70
2019-01-08T03:45:48.555Z,5.05
2019-01-08T03:48:18.393Z,4.70
2019-01-08T03:50:47.856Z,5.20
2019-01-08T03:53:17.622Z,4.97
2019-01-08T03:55:47.127Z,4.67
2019-01-08T03:58:16.895Z,4.78
2019-01-08T04:00:46.323Z,4.97
2019-01-08T04:03:15.898Z,5.05
2019-01-08T04:05:45.516Z,4.97
2019-01-08T04:08:15.149Z,5.05
2019-01-08T04:10:44.593Z,5.67
2019-01-08T04:13:14.269Z,4.65
2019-01-08T04:15:43.752Z,5.22
2019-01-08T04:18:13.223Z,4.60
2019-01-08T04:20:42.987Z,4.80
2019-01-08T04:23:12.544Z,5.12
2019-01-08T04:25:42.099Z,5.05
2019-01-08T04:28:11.632Z,5.08
2019-01-08T04:30:41.556Z,5.03
2019-01-08T04:33:11.972Z,5.45
2019-01-08T04:35:41.532Z,4.85
2019-01-08T04:38:10.963Z,4.60
2019-01-08T04:40:40.638Z,5.15
2019-01-08T04:43:10.116Z,4.50
2019-01-08T04:45:39.698Z,4.62
2019-01-08T04:48:09.243Z,5.30
2019-01-08T04:50:38.698Z,4.72
2019-01-08T04:53:08.139Z,5.50
2019-01-08T04:55:37.638Z,5.20
2019-01-08T04:58:07.188Z,4.90
2019-01-08T05:00:37.348Z,5.28
2019-01-08T05:03:06.840Z,5.28
2019-01-08T05:05:36.310Z,5.40
2019-01-08T05:08:06.002Z,4.92
2019-01-08T05:10:35.575Z,4.97
2019-01-08T05:13:05.251Z,4.92
2019-01-08T05:15:34.759Z,4.95
2019-01-08T05:18:04.187Z,4.90
2019-01-08T05:20:33.953Z,5.17
2019-01-08T05:23:03.456Z,5.90
2019-01-08T05:25:33.046Z,4.75
2019-01-08T05:28:02.547Z,4.70
2019-01-08T05:30:32.087Z,5.00
2019-01-08T05:33:01.576Z,5.55
2019-01-08T05:35:31.229Z,5.80
2019-01-08T05:38:00.706Z,5.42
2019-01-08T05:40:30.176Z,5.05
2019-01-08T05:42:59.636Z,5.35
2019-01-08T05:45:29.170Z,5.05
2019-01-08T05:47:58.674Z,4.20
2019-01-08T05:50:28.169Z,4.60
2019-01-08T05:52:57.817Z,4.65
2019-01-08T05:55:27.563Z,4.50
2019-01-08T05:57:57.240Z,4.40
2019-01-08T06:00:26.711Z,4.45
2019-01-08T06:02:56.270Z,4.53
2019-01-08T06:05:25.788Z,4.67
2019-01-08T06:07:55.298Z,5.53
2019-01-08T06:10:24.768Z,4.60
2019-01-08T06:12:54.646Z,4.87
2019-01-08T06:15:24.111Z,4.85
2019-01-08T06:17:53.720Z,4.50
2019-01-08T06:20:23.200Z,4.75
2019-01-08T06:22:52.781Z,4.55
2019-01-08T06:25:22.349Z,4.42
2019-01-08T06:27:51.834Z,4.12
2019-01-08T06:30:24.872Z,4.12
2019-01-08T06:32:52.458Z,3.77
2019-01-08T06:35:21.893Z,4.40
2019-01-08T06:37:51.448Z,3.90
2019-01-08T06:40:20.981Z,4.22
2019-01-08T06:42:50.911Z,4.12
2019-01-08T06:45:20.387Z,3.85
2019-01-08T06:47:49.872Z,4.12
2019-01-08T06:50:19.684Z,4.00
2019-01-08T06:52:49.053Z,4.30
2019-01-08T06:55:18.576Z,4.85
2019-01-08T06:57:48.449Z,4.78
2019-01-08T07:00:17.959Z,4.85
2019-01-08T07:02:47.472Z,4.28
2019-01-08T07:05:17.063Z,4.17
2019-01-08T07:07:46.559Z,4.05
2019-01-08T07:10:16.006Z,3.55
2019-01-08T07:12:45.606Z,4.50
2019-01-08T07:15:15.070Z,4.45
2019-01-08T07:17:44.536Z,3.40
2019-01-08T07:20:14.123Z,3.83
2019-01-08T07:22:44.611Z,3.98
2019-01-08T07:25:14.136Z,3.80
2019-01-08T07:27:43.700Z,3.50
2019-01-08T07:30:13.133Z,4.03
2019-01-08T07:32:42.551Z,4.10
2019-01-08T07:35:11.993Z,3.47
2019-01-08T07:37:41.628Z,4.05
2019-01-08T07:40:11.055Z,4.00
2019-01-08T07:42:40.567Z,4.28
2019-01-08T07:45:10.849Z,3.30
2019-01-08T07:47:40.739Z,3.30
2019-01-08T07:50:10.889Z,2.45
2019-01-08T07:52:40.393Z,2.50
2019-01-08T07:55:09.910Z,3.17
2019-01-08T07:57:39.387Z,2.90
2019-01-08T08:00:09.082Z,3.17
2019-01-08T08:02:38.775Z,2.90
2019-01-08T08:05:08.295Z,3.30
2019-01-08T08:07:37.751Z,2.50
2019-01-08T08:10:08.465Z,3.10
2019-01-08T08:12:37.958Z,2.33
2019-01-08T08:15:07.863Z,2.45
2019-01-08T08:17:55.572Z,2.75
2019-01-08T08:20:24.983Z,2.10
2019-01-08T08:22:54.500Z,2.33
2019-01-08T08:25:24.100Z,2.08
2019-01-08T08:27:53.555Z,2.58
2019-01-08T08:30:23.147Z,2.30
2019-01-08T08:32:53.007Z,2.40
2019-01-08T08:35:22.479Z,2.62
2019-01-08T08:37:52.382Z,3.20
2019-01-08T08:40:21.902Z,2.40
2019-01-08T08:42:51.756Z,2.02
2019-01-08T08:45:21.315Z,2.40
2019-01-08T08:47:50.832Z,2.33
2019-01-08T08:50:20.299Z,2.30
2019-01-08T08:52:49.805Z,2.40
2019-01-08T08:55:19.625Z,2.00
2019-01-08T08:57:49.072Z,2.72
2019-01-08T09:00:18.549Z,2.30
2019-01-08T09:02:48.015Z,2.20
2019-01-08T09:05:17.638Z,2.10
2019-01-08T09:07:47.152Z,2.40
2019-01-08T09:10:16.660Z,1.95
2019-01-08T09:12:46.236Z,2.30
2019-01-08T09:15:15.711Z,2.27
2019-01-08T09:17:45.157Z,2.77
2019-01-08T09:20:15.020Z,2.92
2019-01-08T09:22:44.441Z,2.50
2019-01-08T09:25:14.319Z,2.60
2019-01-08T09:27:43.860Z,2.20
2019-01-08T09:30:13.443Z,2.00
2019-01-08T09:32:42.905Z,2.75
2019-01-08T09:35:12.359Z,2.40
2019-01-08T09:37:42.181Z,2.83
2019-01-08T09:40:11.590Z,2.20
2019-01-08T09:42:42.828Z,2.40
2019-01-08T09:45:12.280Z,1.90
2019-01-08T09:47:41.905Z,1.80
2019-01-08T09:50:11.387Z,2.37
2019-01-08T09:52:40.966Z,2.27
2019-01-08T09:55:10.759Z,2.02
2019-01-08T09:57:40.222Z,2.25
2019-01-08T10:00:10.247Z,1.98
2019-01-08T10:02:39.755Z,2.15
2019-01-08T10:05:09.674Z,2.70
2019-01-08T10:07:39.171Z,2.52
2019-01-08T10:10:10.428Z,2.10
2019-01-08T10:12:40.372Z,2.30
2019-01-08T10:15:09.904Z,2.40
2019-01-08T10:17:39.751Z,2.40
2019-01-08T10:20:09.317Z,2.40
2019-01-08T10:22:39.171Z,2.40
2019-01-08T10:25:09.369Z,2.50
2019-01-08T10:27:38.923Z,2.25
2019-01-08T10:30:10.088Z,3.30
2019-01-08T10:32:39.907Z,2.60
2019-01-08T10:35:09.427Z,2.35
2019-01-08T10:37:38.892Z,2.20
2019-01-08T10:40:09.022Z,2.35
2019-01-08T10:42:38.641Z,2.40
2019-01-08T10:45:08.431Z,2.98
2019-01-08T10:47:38.033Z,3.30
2019-01-08T10:50:07.930Z,2.40
2019-01-08T10:52:37.440Z,2.37
2019-01-08T10:55:07.026Z,2.35
2019-01-08T10:57:36.474Z,2.62
2019-01-08T11:00:07.054Z,2.70
2019-01-08T11:02:36.439Z,3.22
2019-01-08T11:05:06.059Z,3.08
2019-01-08T11:07:35.517Z,2.65
2019-01-08T11:10:05.277Z,2.50
2019-01-08T11:12:34.686Z,2.70
2019-01-08T11:15:04.380Z,2.42
2019-01-08T11:17:33.837Z,2.15
2019-01-08T11:20:03.816Z,2.25
2019-01-08T11:22:33.277Z,2.30
2019-01-08T11:25:02.808Z,2.20
2019-01-08T11:27:32.427Z,2.30
2019-01-08T11:30:01.909Z,2.25
2019-01-08T11:32:31.422Z,2.60
2019-01-08T11:35:01.583Z,2.70
2019-01-08T11:37:31.235Z,2.45
2019-01-08T11:40:00.727Z,2.33
2019-01-08T11:42:30.162Z,2.40
2019-01-08T11:44:59.675Z,2.50
2019-01-08T11:47:29.203Z,2.25
2019-01-08T11:49:58.668Z,2.10
2019-01-08T11:52:28.388Z,2.02
2019-01-08T11:54:57.845Z,2.30
2019-01-08T11:57:27.316Z,2.52
2019-01-08T11:59:56.773Z,2.52
2019-01-08T12:02:26.291Z,2.42
2019-01-08T12:04:55.803Z,2.30
2019-01-08T12:07:31.149Z,2.20
2019-01-08T12:09:56.520Z,2.22
2019-01-08T12:12:26.088Z,2.25
2019-01-08T12:14:55.527Z,2.55
2019-01-08T12:17:25.035Z,2.50
2019-01-08T12:19:54.609Z,2.35
2019-01-08T12:22:24.132Z,1.95
2019-01-08T12:24:53.595Z,2.30
2019-01-08T12:27:23.352Z,2.70
2019-01-08T12:29:52.879Z,2.50
2019-01-08T12:32:22.370Z,2.37
2019-01-08T12:34:52.324Z,2.30
2019-01-08T12:37:21.819Z,2.50
2019-01-08T12:39:51.691Z,2.60
2019-01-08T12:42:21.278Z,2.80
2019-01-08T12:44:53.845Z,3.30
2019-01-08T12:47:23.377Z,9.00
2019-01-08T12:49:54.441Z,3.50
2019-01-08T12:52:24.403Z,3.52
2019-01-08T12:54:53.853Z,5.08
2019-01-08T12:57:23.478Z,3.42
2019-01-08T12:59:53.066Z,3.00
2019-01-08T13:02:22.650Z,4.20
2019-01-08T13:04:53.817Z,4.35
2019-01-08T13:07:23.343Z,6.08
2019-01-08T13:09:52.919Z,3.65
2019-01-08T13:12:22.488Z,4.20
2019-01-08T13:14:52.009Z,3.60
2019-01-08T13:17:21.720Z,3.35
2019-01-08T13:19:51.327Z,3.05
2019-01-08T13:22:20.967Z,2.80
2019-01-08T13:24:50.539Z,3.02
2019-01-08T13:27:20.144Z,3.47
2019-01-08T13:29:49.714Z,2.70
2019-01-08T13:32:23.292Z,2.55
2019-01-08T13:34:50.520Z,3.20
2019-01-08T13:37:20.169Z,3.10
2019-01-08T13:39:49.678Z,2.90
2019-01-08T13:42:19.316Z,3.10
2019-01-08T13:44:48.819Z,3.30
2019-01-08T13:47:18.255Z,2.80
2019-01-08T13:49:47.746Z,2.87
2019-01-08T13:52:17.451Z,3.27
2019-01-08T13:54:46.896Z,3.25
2019-01-08T13:57:16.383Z,3.50
2019-01-08T13:59:46.221Z,3.33
2019-01-08T14:02:15.709Z,3.52
2019-01-08T14:04:45.192Z,6.03
2019-01-08T14:07:14.772Z,3.40
2019-01-08T14:09:44.222Z,6.00
2019-01-08T14:12:13.728Z,4.60
2019-01-08T14:14:43.371Z,5.00
2019-01-08T14:17:12.862Z,3.22
2019-01-08T14:19:42.397Z,3.98
2019-01-08T14:22:12.088Z,6.60
2019-01-08T14:24:41.659Z,4.53
2019-01-08T14:27:11.863Z,3.50
2019-01-08T14:29:41.673Z,3.62
2019-01-08T14:32:11.183Z,3.90
2019-01-08T14:34:40.888Z,10.10
2019-01-08T14:37:10.345Z,3.95
2019-01-08T14:39:39.858Z,4.28
2019-01-08T14:42:09.301Z,3.42
2019-01-08T14:44:38.953Z,4.60
2019-01-08T14:47:08.495Z,4.85
2019-01-08T14:49:37.964Z,4.40
2019-01-08T14:52:07.458Z,3.60
2019-01-08T14:54:36.983Z,4.78
2019-01-08T14:57:06.485Z,4.25
2019-01-08T14:59:36.074Z,5.75
2019-01-08T15:02:05.550Z,3.95
2019-01-08T15:04:35.170Z,3.72
2019-01-08T15:07:04.890Z,4.17
2019-01-08T15:09:34.410Z,4.25
2019-01-08T15:12:03.943Z,3.60
2019-01-08T15:14:33.673Z,3.98
2019-01-08T15:17:03.214Z,4.15
2019-01-08T15:19:33.132Z,4.80
2019-01-08T15:22:02.614Z,5.55
2019-01-08T15:24:33.160Z,4.25
2019-01-08T15:27:02.775Z,4.40
2019-01-08T15:29:32.348Z,5.25
2019-01-08T15:32:02.048Z,5.22
2019-01-08T15:34:31.716Z,4.85
2019-01-08T15:37:01.470Z,4.10
2019-01-08T15:39:31.029Z,4.22
2019-01-08T15:42:00.920Z,3.90
2019-01-08T15:44:30.363Z,4.30
2019-01-08T15:47:00.036Z,4.25
2019-01-08T15:49:29.555Z,4.05
2019-01-08T15:51:59.092Z,4.85
2019-01-08T15:54:29.132Z,4.83
2019-01-08T15:56:58.712Z,4.35
2019-01-08T15:59:28.281Z,4.72
2019-01-08T16:01:57.865Z,4.60
2019-01-08T16:04:27.440Z,4.20
2019-01-08T16:06:57.099Z,4.67
2019-01-08T16:09:44.946Z,4.58
2019-01-08T16:12:14.640Z,5.60
2019-01-08T16:15:02.091Z,6.30
2019-01-08T16:17:31.699Z,4.47
2019-01-08T16:20:01.220Z,4.80
2019-01-08T16:22:30.696Z,4.80
2019-01-08T16:25:00.498Z,5.20
2019-01-08T16:27:30.096Z,4.78
2019-01-08T16:29:59.664Z,5.30
2019-01-08T16:32:29.169Z,4.00
2019-01-08T16:34:58.754Z,4.90
2019-01-08T16:37:28.384Z,4.70
2019-01-08T16:39:57.903Z,4.75
2019-01-08T16:42:27.492Z,5.17
2019-01-08T16:44:57.313Z,4.75
2019-01-08T16:47:26.836Z,4.95
2019-01-08T16:49:56.742Z,4.70
2019-01-08T16:52:26.651Z,5.75
2019-01-08T16:54:56.195Z,5.12
2019-01-08T16:57:26.086Z,6.00
2019-01-08T16:59:55.722Z,6.45
2019-01-08T17:02:25.249Z,5.95
2019-01-08T17:04:54.889Z,4.70
2019-01-08T17:07:24.493Z,6.45
2019-01-08T17:09:55.582Z,4.87
2019-01-08T17:12:25.467Z,5.00
2019-01-08T17:14:55.100Z,4.12
2019-01-08T17:17:24.812Z,5.40
2019-01-08T17:19:54.448Z,5.90
2019-01-08T17:22:41.881Z,4.72
2019-01-08T17:25:11.432Z,5.20
2019-01-08T17:27:40.999Z,6.30
2019-01-08T17:30:12.082Z,4.42
2019-01-08T17:32:41.579Z,3.95
2019-01-08T17:35:11.111Z,5.08
2019-01-08T17:38:16.516Z,4.70
2019-01-08T17:40:45.992Z,5.08
2019-01-08T17:43:15.579Z,3.75
2019-01-08T17:45:45.120Z,5.30
2019-01-08T17:48:14.646Z,5.12
2019-01-08T17:50:44.436Z,5.08
2019-01-08T17:53:13.904Z,5.00
2019-01-08T17:55:43.625Z,4.45
2019-01-08T17:58:35.414Z,4.30
2019-01-08T18:01:08.156Z,4.50
2019-01-08T18:03:42.639Z,4.97
2019-01-08T18:06:09.181Z,4.75
2019-01-08T18:08:39.077Z,5.30
2019-01-08T18:11:08.991Z,5.10
2019-01-08T18:13:38.618Z,4.97
2019-01-08T18:16:43.929Z,6.00
2019-01-08T18:19:13.709Z,5.35
2019-01-08T18:21:43.425Z,6.47
2019-01-08T18:24:31.164Z,5.60
2019-01-08T18:27:02.091Z,7.05
2019-01-08T18:29:31.944Z,10.23
2019-01-08T18:35:31.966Z,7.80
2019-01-08T18:38:01.604Z,10.80
2019-01-08T18:40:31.272Z,8.85
2019-01-08T18:43:00.926Z,7.42
2019-01-08T18:45:30.996Z,7.97
2019-01-08T18:48:01.001Z,6.80
2019-01-08T18:50:30.587Z,7.37
2019-01-08T18:53:06.331Z,6.97
2019-01-08T18:55:36.017Z,8.33
2019-01-08T18:58:05.708Z,8.43
2019-01-08T19:01:10.957Z,8.15
2019-01-08T19:03:40.516Z,6.92
2019-01-08T19:06:10.154Z,7.30
2019-01-08T19:09:15.243Z,6.65
2019-01-08T19:11:44.928Z,7.05
2019-01-08T19:14:16.324Z,6.47
2019-01-08T19:17:21.687Z,6.95
2019-01-08T19:19:51.231Z,8.53
2019-01-08T19:22:20.861Z,6.65
2019-01-08T19:24:50.887Z,6.33
2019-01-08T19:27:20.616Z,6.35
2019-01-08T19:29:50.476Z,6.33
2019-01-08T19:32:22.145Z,6.12
2019-01-08T19:34:51.557Z,7.10
2019-01-08T19:37:21.180Z,7.67
2019-01-08T19:39:50.915Z,15.95
2019-01-08T19:42:20.626Z,7.80
2019-01-08T19:45:09.139Z,7.17
2019-01-08T19:47:38.822Z,6.67
2019-01-08T19:50:09.185Z,6.03
2019-01-08T19:52:39.257Z,6.75
2019-01-08T19:55:09.016Z,6.80
2019-01-08T19:57:38.682Z,7.40
2019-01-08T20:00:11.542Z,5.67
2019-01-08T20:02:41.244Z,5.85
2019-01-08T20:05:10.722Z,6.30
2019-01-08T20:07:40.394Z,6.53
2019-01-08T20:10:10.115Z,6.03
2019-01-08T20:12:39.761Z,6.42
2019-01-08T20:15:11.537Z,8.60
2019-01-08T20:17:41.217Z,6.53
2019-01-08T20:20:11.194Z,6.60
2019-01-08T20:22:40.800Z,6.90
2019-01-08T20:25:10.417Z,6.92
2019-01-08T20:27:39.962Z,9.85
2019-01-08T20:30:09.808Z,6.78
2019-01-08T20:32:39.415Z,7.30
2019-01-08T20:35:10.234Z,8.98
2019-01-08T20:37:39.986Z,4.80
2019-01-08T20:40:10.090Z,5.62
2019-01-08T20:42:39.988Z,5.70
2019-01-08T20:45:09.661Z,6.60
2019-01-08T20:47:39.466Z,4.87
2019-01-08T20:50:09.087Z,4.62
2019-01-08T20:52:38.802Z,4.60
2019-01-08T20:55:08.174Z,4.08
2019-01-08T20:57:37.586Z,4.17
2019-01-08T21:00:08.434Z,4.47
2019-01-08T21:02:37.875Z,3.98
2019-01-08T21:05:07.219Z,3.85
2019-01-08T21:07:36.619Z,4.03
2019-01-08T21:10:06.210Z,4.03
2019-01-08T21:12:35.624Z,4.20
2019-01-08T21:15:05.102Z,4.22
2019-01-08T21:17:34.505Z,4.53
2019-01-08T21:20:04.116Z,3.92
2019-01-08T21:22:33.475Z,4.75
2019-01-08T21:25:02.851Z,4.72
2019-01-08T21:27:32.338Z,4.62
2019-01-08T21:30:01.752Z,4.05
2019-01-08T21:32:31.171Z,3.33
2019-01-08T21:35:00.621Z,4.15
2019-01-08T21:37:29.981Z,4.35
2019-01-08T21:39:59.513Z,4.03
2019-01-08T21:42:29.041Z,3.40
2019-01-08T21:44:58.408Z,4.70
2019-01-08T21:47:27.758Z,4.62
2019-01-08T21:49:57.227Z,4.10
2019-01-08T21:52:27.759Z,4.20
2019-01-08T21:54:57.156Z,3.77
2019-01-08T21:57:26.463Z,3.65
2019-01-08T21:59:55.814Z,3.45
2019-01-08T22:02:25.183Z,3.05
2019-01-08T22:04:54.598Z,3.58
2019-01-08T22:07:24.100Z,3.47
2019-01-08T22:09:53.442Z,3.00
2019-01-08T22:12:22.792Z,2.80
2019-01-08T22:14:52.188Z,2.55
2019-01-08T22:17:21.550Z,2.90
2019-01-08T22:19:51.094Z,3.10
2019-01-08T22:22:20.517Z,2.62
2019-01-08T22:24:49.841Z,2.65
2019-01-08T22:27:19.222Z,2.70
2019-01-08T22:29:48.600Z,3.00
2019-01-08T22:32:18.125Z,2.40
2019-01-08T22:34:47.435Z,2.60
2019-01-08T22:37:16.832Z,2.90
2019-01-08T22:39:46.171Z,2.87
2019-01-08T22:42:15.562Z,2.65
2019-01-08T22:44:44.930Z,3.20
2019-01-08T22:47:14.418Z,2.20
2019-01-08T22:49:44.310Z,2.40
2019-01-08T22:52:13.689Z,2.55
2019-01-08T22:54:43.154Z,2.70
2019-01-08T22:57:12.467Z,2.98
2019-01-08T22:59:41.767Z,2.62
2019-01-08T23:02:11.089Z,2.80
2019-01-08T23:04:40.439Z,2.72
2019-01-08T23:07:09.750Z,2.40
2019-01-08T23:09:39.107Z,2.40
2019-01-08T23:12:08.745Z,2.30
2019-01-08T23:14:38.041Z,2.70
2019-01-08T23:17:07.441Z,2.87
2019-01-08T23:19:36.829Z,2.40
2019-01-08T23:22:06.196Z,2.58
2019-01-08T23:24:35.820Z,2.60
2019-01-08T23:27:05.164Z,2.75
2019-01-08T23:29:34.497Z,2.50
2019-01-08T23:32:03.882Z,3.20
2019-01-08T23:34:33.222Z,2.60
2019-01-08T23:37:02.646Z,3.05
2019-01-08T23:39:32.110Z,2.85
2019-01-08T23:42:01.473Z,2.50
2019-01-08T23:44:30.835Z,2.77
2019-01-08T23:47:00.127Z,2.80
2019-01-08T23:49:29.497Z,2.83
2019-01-08T23:52:08.504Z,2.77
2019-01-08T23:54:39.091Z,3.35
2019-01-08T23:57:08.519Z,3.00
2019-01-08T23:59:37.811Z,2.95
